KVDI/VDI METAR and TAF weather

Enter ICAO airport designator
Station Type Date Time Source
KVDI METAR 2022/01/26 08:15 UTC NOAA

KVDI 260815Z AUTO 00000KT 10SM OVC110 10/06 A3008 RMK AO2


Station Type Date Time Source
KVDI Decoded METAR 2022/01/26 08:15 UTC NOAA

Vidalia, Vidalia Municipal Airport, GA, United States (KVDI) 32-11-33N 082-22-19W
Jan 26, 2022 - 03:15 AM EST / 2022.01.26 0815 UTC
Wind: Calm:0
Visibility: 10 mile(s):0
Sky conditions: overcast
Temperature: 50 F (10 C)
Dew Point: 42 F (6 C)
Relative Humidity: 76%
Pressure (altimeter): 30.08 in. Hg (1018 hPa)
ob: KVDI 260815Z AUTO 00000KT 10SM OVC110 10/06 A3008 RMK AO2
cycle: 8

Station Type Date Time Source
KVDI TAF UTC NOAA

Error!

Example: see airport list